메인 페이지
METAR-TAF:

METAR-TAF

공항 :

루사카 국제공항

루사카, 잠비아

위도: 15-19-51S, 경도: 028-27-09E, 고도: 1152m

현재 날씨관측

예보는 42분 전, 22:00시(UTC)에 발표되었습니다.
무풍
온도 12°C
습도 76%
기압 1024 hPa
시정 10km 이상
1500m 미만 상공 구름 및 적란운 없음

METAR: FLKK 182200Z 00000KT CAVOK 12/08 Q1024

시각: 00:42 (22:42 UTC)


TAF: 누락

4,000개 이상의 공항 관측 자료 및 예보 (METAR 및 TAF 보고).

지도상에서 검색 가능한 기상관측소가 노란 점과 빨간 점으로 표시되어 있습니다.

기상관측소 명을 보려면 표시 위로 마우스를 이동하세요.

날씨 관측과 예보를 보려면 클릭하세요.

지도 변경 : 확대하려면 엑스 표시가 있는 녹색 버튼, 축소하려면 빼기 표시가 있는 녹색 버튼, 다음 페이지의 지도를 보려면 녹색 화살표를 클릭하세요.


METAR-TAF: